sensor_id;sensor_type;location;lat;lon;timestamp;temperature;humidity
64685;DHT22;51109;47.414;18.954;2022-11-10T00:01:07;10.10;99.90
64685;DHT22;51109;47.414;18.954;2022-11-10T00:03:35;10.10;99.90
64685;DHT22;51109;47.414;18.954;2022-11-10T00:06:02;10.10;99.90
64685;DHT22;51109;47.414;18.954;2022-11-10T00:08:29;10.10;99.90
64685;DHT22;51109;47.414;18.954;2022-11-10T00:10:55;10.10;99.90
64685;DHT22;51109;47.414;18.954;2022-11-10T00:13:25;10.10;99.90
64685;DHT22;51109;47.414;18.954;2022-11-10T00:15:52;10.10;99.90
64685;DHT22;51109;47.414;18.954;2022-11-10T00:18:36;10.10;99.90
64685;DHT22;51109;47.414;18.954;2022-11-10T00:21:08;10.10;99.90
64685;DHT22;51109;47.414;18.954;2022-11-10T00:23:36;10.10;99.90
64685;DHT22;51109;47.414;18.954;2022-11-10T00:26:02;10.10;99.90
64685;DHT22;51109;47.414;18.954;2022-11-10T00:28:30;10.20;99.90
64685;DHT22;51109;47.414;18.954;2022-11-10T00:30:57;10.10;99.90
64685;DHT22;51109;47.414;18.954;2022-11-10T00:33:23;10.10;99.90
64685;DHT22;51109;47.414;18.954;2022-11-10T00:35:49;10.10;99.90
64685;DHT22;51109;47.414;18.954;2022-11-10T00:38:15;10.10;99.90
64685;DHT22;51109;47.414;18.954;2022-11-10T00:40:41;10.10;99.90
64685;DHT22;51109;47.414;18.954;2022-11-10T00:43:07;10.10;99.90
64685;DHT22;51109;47.414;18.954;2022-11-10T00:45:33;10.10;99.90
64685;DHT22;51109;47.414;18.954;2022-11-10T00:47:59;10.10;99.90
64685;DHT22;51109;47.414;18.954;2022-11-10T00:50:24;10.20;99.90
64685;DHT22;51109;47.414;18.954;2022-11-10T00:52:50;10.20;99.90
64685;DHT22;51109;47.414;18.954;2022-11-10T00:55:16;10.20;99.90
64685;DHT22;51109;47.414;18.954;2022-11-10T00:57:42;10.20;99.90
64685;DHT22;51109;47.414;18.954;2022-11-10T01:00:08;10.20;99.90
64685;DHT22;51109;47.414;18.954;2022-11-10T01:02:34;10.20;99.90
64685;DHT22;51109;47.414;18.954;2022-11-10T01:05:00;10.20;99.90
64685;DHT22;51109;47.414;18.954;2022-11-10T01:07:26;10.20;99.90
64685;DHT22;51109;47.414;18.954;2022-11-10T01:09:52;10.20;99.90
64685;DHT22;51109;47.414;18.954;2022-11-10T01:12:17;10.30;99.90
64685;DHT22;51109;47.414;18.954;2022-11-10T01:14:46;10.20;99.90
64685;DHT22;51109;47.414;18.954;2022-11-10T01:17:12;10.20;99.90
64685;DHT22;51109;47.414;18.954;2022-11-10T01:19:39;10.20;99.90
64685;DHT22;51109;47.414;18.954;2022-11-10T01:22:06;10.20;99.90
64685;DHT22;51109;47.414;18.954;2022-11-10T01:24:31;10.20;99.90
64685;DHT22;51109;47.414;18.954;2022-11-10T01:26:57;10.30;99.90
64685;DHT22;51109;47.414;18.954;2022-11-10T01:29:23;10.20;99.90
64685;DHT22;51109;47.414;18.954;2022-11-10T01:31:50;10.20;99.90
64685;DHT22;51109;47.414;18.954;2022-11-10T01:34:16;10.30;99.90
64685;DHT22;51109;47.414;18.954;2022-11-10T01:36:42;10.30;99.90
64685;DHT22;51109;47.414;18.954;2022-11-10T01:39:08;10.30;99.90
64685;DHT22;51109;47.414;18.954;2022-11-10T01:41:34;10.20;99.90
64685;DHT22;51109;47.414;18.954;2022-11-10T01:44:21;10.20;99.90
64685;DHT22;51109;47.414;18.954;2022-11-10T01:46:47;10.20;99.90
64685;DHT22;51109;47.414;18.954;2022-11-10T01:49:16;10.30;99.90
64685;DHT22;51109;47.414;18.954;2022-11-10T01:51:47;10.30;99.90
64685;DHT22;51109;47.414;18.954;2022-11-10T01:54:24;10.30;99.90
64685;DHT22;51109;47.414;18.954;2022-11-10T01:56:53;10.30;99.90
64685;DHT22;51109;47.414;18.954;2022-11-10T01:59:24;10.20;99.90
64685;DHT22;51109;47.414;18.954;2022-11-10T02:04:32;10.30;99.90
64685;DHT22;51109;47.414;18.954;2022-11-10T02:06:59;10.30;99.90
64685;DHT22;51109;47.414;18.954;2022-11-10T02:09:25;10.30;99.90
64685;DHT22;51109;47.414;18.954;2022-11-10T02:11:52;10.30;99.90
64685;DHT22;51109;47.414;18.954;2022-11-10T02:14:19;10.30;99.90
64685;DHT22;51109;47.414;18.954;2022-11-10T02:16:45;10.30;99.90
64685;DHT22;51109;47.414;18.954;2022-11-10T02:19:24;10.30;99.90
64685;DHT22;51109;47.414;18.954;2022-11-10T02:21:50;10.40;99.90
64685;DHT22;51109;47.414;18.954;2022-11-10T02:24:16;10.40;99.90
64685;DHT22;51109;47.414;18.954;2022-11-10T02:26:47;10.40;99.90
64685;DHT22;51109;47.414;18.954;2022-11-10T02:29:14;10.40;99.90
64685;DHT22;51109;47.414;18.954;2022-11-10T02:31:40;10.50;99.90
64685;DHT22;51109;47.414;18.954;2022-11-10T02:34:06;10.50;99.90
64685;DHT22;51109;47.414;18.954;2022-11-10T02:36:32;10.50;99.90
64685;DHT22;51109;47.414;18.954;2022-11-10T02:38:58;10.40;99.90
64685;DHT22;51109;47.414;18.954;2022-11-10T02:41:24;10.40;99.90
64685;DHT22;51109;47.414;18.954;2022-11-10T02:43:52;10.50;99.90
64685;DHT22;51109;47.414;18.954;2022-11-10T02:46:18;10.50;99.90
64685;DHT22;51109;47.414;18.954;2022-11-10T02:48:43;10.50;99.90
64685;DHT22;51109;47.414;18.954;2022-11-10T02:51:09;10.50;99.90
64685;DHT22;51109;47.414;18.954;2022-11-10T02:53:35;10.50;99.90
64685;DHT22;51109;47.414;18.954;2022-11-10T02:56:01;10.50;99.90
64685;DHT22;51109;47.414;18.954;2022-11-10T02:58:27;10.50;99.90
64685;DHT22;51109;47.414;18.954;2022-11-10T03:00:53;10.50;99.90
64685;DHT22;51109;47.414;18.954;2022-11-10T03:03:18;10.50;99.90
64685;DHT22;51109;47.414;18.954;2022-11-10T03:05:44;10.50;99.90
64685;DHT22;51109;47.414;18.954;2022-11-10T03:08:10;10.50;99.90
64685;DHT22;51109;47.414;18.954;2022-11-10T03:10:36;10.40;99.90
64685;DHT22;51109;47.414;18.954;2022-11-10T03:13:02;10.40;99.90
64685;DHT22;51109;47.414;18.954;2022-11-10T03:15:28;10.40;99.90
64685;DHT22;51109;47.414;18.954;2022-11-10T03:17:55;10.40;99.90
64685;DHT22;51109;47.414;18.954;2022-11-10T03:20:21;10.50;99.90
64685;DHT22;51109;47.414;18.954;2022-11-10T03:22:47;10.40;99.90
64685;DHT22;51109;47.414;18.954;2022-11-10T03:25:13;10.50;99.90
64685;DHT22;51109;47.414;18.954;2022-11-10T03:27:39;10.50;99.90
64685;DHT22;51109;47.414;18.954;2022-11-10T03:30:06;10.50;99.90
64685;DHT22;51109;47.414;18.954;2022-11-10T03:32:33;10.40;99.90
64685;DHT22;51109;47.414;18.954;2022-11-10T03:34:58;10.50;99.90
64685;DHT22;51109;47.414;18.954;2022-11-10T03:37:24;10.50;99.90
64685;DHT22;51109;47.414;18.954;2022-11-10T03:39:50;10.50;99.90
64685;DHT22;51109;47.414;18.954;2022-11-10T03:42:16;10.50;99.90
64685;DHT22;51109;47.414;18.954;2022-11-10T03:44:42;10.50;99.90
64685;DHT22;51109;47.414;18.954;2022-11-10T03:47:08;10.50;99.90
64685;DHT22;51109;47.414;18.954;2022-11-10T03:49:33;10.50;99.90
64685;DHT22;51109;47.414;18.954;2022-11-10T03:51:59;10.50;99.90
64685;DHT22;51109;47.414;18.954;2022-11-10T03:54:25;10.50;99.90
64685;DHT22;51109;47.414;18.954;2022-11-10T03:56:51;10.50;99.90
64685;DHT22;51109;47.414;18.954;2022-11-10T03:59:16;10.50;99.90
64685;DHT22;51109;47.414;18.954;2022-11-10T04:01:42;10.60;99.90
64685;DHT22;51109;47.414;18.954;2022-11-10T04:04:09;10.50;99.90
64685;DHT22;51109;47.414;18.954;2022-11-10T04:06:55;10.50;99.90
64685;DHT22;51109;47.414;18.954;2022-11-10T04:09:40;10.50;99.90
64685;DHT22;51109;47.414;18.954;2022-11-10T04:12:06;10.40;99.90
64685;DHT22;51109;47.414;18.954;2022-11-10T04:14:50;10.40;99.90
64685;DHT22;51109;47.414;18.954;2022-11-10T04:17:35;10.30;99.90
64685;DHT22;51109;47.414;18.954;2022-11-10T04:20:01;10.30;99.90
64685;DHT22;51109;47.414;18.954;2022-11-10T04:22:28;10.30;99.90
64685;DHT22;51109;47.414;18.954;2022-11-10T04:25:13;10.30;99.90
64685;DHT22;51109;47.414;18.954;2022-11-10T04:27:38;10.30;99.90
64685;DHT22;51109;47.414;18.954;2022-11-10T04:30:05;10.30;99.90
64685;DHT22;51109;47.414;18.954;2022-11-10T04:32:31;10.20;99.90
64685;DHT22;51109;47.414;18.954;2022-11-10T04:34:56;10.30;99.90
64685;DHT22;51109;47.414;18.954;2022-11-10T04:37:22;10.20;99.90
64685;DHT22;51109;47.414;18.954;2022-11-10T04:39:48;10.20;99.90
64685;DHT22;51109;47.414;18.954;2022-11-10T04:42:14;10.20;99.90
64685;DHT22;51109;47.414;18.954;2022-11-10T04:44:40;10.20;99.90
64685;DHT22;51109;47.414;18.954;2022-11-10T04:47:06;10.20;99.90
64685;DHT22;51109;47.414;18.954;2022-11-10T04:49:32;10.20;99.90
64685;DHT22;51109;47.414;18.954;2022-11-10T04:51:57;10.20;99.90
64685;DHT22;51109;47.414;18.954;2022-11-10T04:54:23;10.20;99.90
64685;DHT22;51109;47.414;18.954;2022-11-10T04:56:49;10.20;99.90
64685;DHT22;51109;47.414;18.954;2022-11-10T04:59:15;10.20;99.90
64685;DHT22;51109;47.414;18.954;2022-11-10T05:01:41;10.20;99.90
64685;DHT22;51109;47.414;18.954;2022-11-10T05:04:07;10.30;99.90
64685;DHT22;51109;47.414;18.954;2022-11-10T05:06:32;10.20;99.90
64685;DHT22;51109;47.414;18.954;2022-11-10T05:08:58;10.20;99.90
64685;DHT22;51109;47.414;18.954;2022-11-10T05:11:24;10.20;99.90
64685;DHT22;51109;47.414;18.954;2022-11-10T05:13:53;10.20;99.90
64685;DHT22;51109;47.414;18.954;2022-11-10T05:16:19;10.20;99.90
64685;DHT22;51109;47.414;18.954;2022-11-10T05:18:45;10.20;99.90
64685;DHT22;51109;47.414;18.954;2022-11-10T05:21:10;10.20;99.90
64685;DHT22;51109;47.414;18.954;2022-11-10T05:23:36;10.20;99.90
64685;DHT22;51109;47.414;18.954;2022-11-10T05:26:10;10.20;99.90
64685;DHT22;51109;47.414;18.954;2022-11-10T05:28:37;10.20;99.90
64685;DHT22;51109;47.414;18.954;2022-11-10T05:31:04;10.20;99.90
64685;DHT22;51109;47.414;18.954;2022-11-10T05:33:30;10.20;99.90
64685;DHT22;51109;47.414;18.954;2022-11-10T05:35:55;10.20;99.90
64685;DHT22;51109;47.414;18.954;2022-11-10T05:38:21;10.20;99.90
64685;DHT22;51109;47.414;18.954;2022-11-10T05:40:47;10.20;99.90
64685;DHT22;51109;47.414;18.954;2022-11-10T05:43:13;10.20;99.90
64685;DHT22;51109;47.414;18.954;2022-11-10T05:45:39;10.30;99.90
64685;DHT22;51109;47.414;18.954;2022-11-10T05:48:05;10.20;99.90
64685;DHT22;51109;47.414;18.954;2022-11-10T05:50:31;10.30;99.90
64685;DHT22;51109;47.414;18.954;2022-11-10T05:52:57;10.30;99.90
64685;DHT22;51109;47.414;18.954;2022-11-10T05:55:26;10.30;99.90
64685;DHT22;51109;47.414;18.954;2022-11-10T05:57:53;10.30;99.90
64685;DHT22;51109;47.414;18.954;2022-11-10T06:00:21;10.30;99.90
64685;DHT22;51109;47.414;18.954;2022-11-10T06:03:05;10.30;99.90
64685;DHT22;51109;47.414;18.954;2022-11-10T06:05:32;10.30;99.90
64685;DHT22;51109;47.414;18.954;2022-11-10T06:07:59;10.30;99.90
64685;DHT22;51109;47.414;18.954;2022-11-10T06:10:26;10.30;99.90
64685;DHT22;51109;47.414;18.954;2022-11-10T06:12:52;10.30;99.90
64685;DHT22;51109;47.414;18.954;2022-11-10T06:15:18;10.30;99.90
64685;DHT22;51109;47.414;18.954;2022-11-10T06:17:44;10.30;99.90
64685;DHT22;51109;47.414;18.954;2022-11-10T06:20:11;10.30;99.90
64685;DHT22;51109;47.414;18.954;2022-11-10T06:22:38;10.40;99.90
64685;DHT22;51109;47.414;18.954;2022-11-10T06:25:04;10.30;99.90
64685;DHT22;51109;47.414;18.954;2022-11-10T06:27:30;10.30;99.90
64685;DHT22;51109;47.414;18.954;2022-11-10T06:29:56;10.30;99.90
64685;DHT22;51109;47.414;18.954;2022-11-10T06:32:22;10.40;99.90
64685;DHT22;51109;47.414;18.954;2022-11-10T06:34:47;10.40;99.90
64685;DHT22;51109;47.414;18.954;2022-11-10T06:37:14;10.40;99.90
64685;DHT22;51109;47.414;18.954;2022-11-10T06:39:40;10.40;99.90
64685;DHT22;51109;47.414;18.954;2022-11-10T06:42:05;10.40;99.90
64685;DHT22;51109;47.414;18.954;2022-11-10T06:44:31;10.40;99.90
64685;DHT22;51109;47.414;18.954;2022-11-10T06:46:57;10.50;99.90
64685;DHT22;51109;47.414;18.954;2022-11-10T06:49:23;10.50;99.90
64685;DHT22;51109;47.414;18.954;2022-11-10T06:51:50;10.40;99.90
64685;DHT22;51109;47.414;18.954;2022-11-10T06:54:16;10.40;99.90
64685;DHT22;51109;47.414;18.954;2022-11-10T06:56:42;10.50;99.90
64685;DHT22;51109;47.414;18.954;2022-11-10T06:59:08;10.50;99.90
64685;DHT22;51109;47.414;18.954;2022-11-10T07:01:34;10.50;99.90
64685;DHT22;51109;47.414;18.954;2022-11-10T07:03:59;10.50;99.90
64685;DHT22;51109;47.414;18.954;2022-11-10T07:06:25;10.50;99.90
64685;DHT22;51109;47.414;18.954;2022-11-10T07:08:51;10.50;99.90
64685;DHT22;51109;47.414;18.954;2022-11-10T07:11:17;10.50;99.90
64685;DHT22;51109;47.414;18.954;2022-11-10T07:13:43;10.50;99.90
64685;DHT22;51109;47.414;18.954;2022-11-10T07:16:09;10.50;99.90
64685;DHT22;51109;47.414;18.954;2022-11-10T07:18:36;10.50;99.90
64685;DHT22;51109;47.414;18.954;2022-11-10T07:21:05;10.50;99.90
64685;DHT22;51109;47.414;18.954;2022-11-10T07:23:32;10.50;99.90
64685;DHT22;51109;47.414;18.954;2022-11-10T07:26:00;10.50;99.90
64685;DHT22;51109;47.414;18.954;2022-11-10T07:28:26;10.50;99.90
64685;DHT22;51109;47.414;18.954;2022-11-10T07:30:52;10.50;99.90
64685;DHT22;51109;47.414;18.954;2022-11-10T07:33:18;10.50;99.90
64685;DHT22;51109;47.414;18.954;2022-11-10T07:35:51;10.50;99.90
64685;DHT22;51109;47.414;18.954;2022-11-10T07:38:18;10.50;99.90
64685;DHT22;51109;47.414;18.954;2022-11-10T07:40:44;10.50;99.90
64685;DHT22;51109;47.414;18.954;2022-11-10T07:43:10;10.60;99.90
64685;DHT22;51109;47.414;18.954;2022-11-10T07:45:36;10.60;99.90
64685;DHT22;51109;47.414;18.954;2022-11-10T07:48:03;10.60;99.90
64685;DHT22;51109;47.414;18.954;2022-11-10T07:50:29;10.60;99.90
64685;DHT22;51109;47.414;18.954;2022-11-10T07:53:10;10.70;99.90
64685;DHT22;51109;47.414;18.954;2022-11-10T07:55:38;10.60;99.90
64685;DHT22;51109;47.414;18.954;2022-11-10T07:58:04;10.70;99.90
64685;DHT22;51109;47.414;18.954;2022-11-10T08:00:31;10.70;99.90
64685;DHT22;51109;47.414;18.954;2022-11-10T08:03:02;10.80;99.90
64685;DHT22;51109;47.414;18.954;2022-11-10T08:05:29;10.80;99.90
64685;DHT22;51109;47.414;18.954;2022-11-10T08:07:55;10.80;99.90
64685;DHT22;51109;47.414;18.954;2022-11-10T08:10:22;10.80;99.90
64685;DHT22;51109;47.414;18.954;2022-11-10T08:12:58;10.80;99.90
64685;DHT22;51109;47.414;18.954;2022-11-10T08:15:26;10.90;99.90
64685;DHT22;51109;47.414;18.954;2022-11-10T08:17:58;11.00;99.90
64685;DHT22;51109;47.414;18.954;2022-11-10T08:20:24;11.00;99.90
64685;DHT22;51109;47.414;18.954;2022-11-10T08:22:56;11.00;99.90
64685;DHT22;51109;47.414;18.954;2022-11-10T08:25:23;11.00;99.90
64685;DHT22;51109;47.414;18.954;2022-11-10T08:28:05;11.10;99.90
64685;DHT22;51109;47.414;18.954;2022-11-10T08:30:32;11.10;99.90
64685;DHT22;51109;47.414;18.954;2022-11-10T08:32:59;11.10;99.90
64685;DHT22;51109;47.414;18.954;2022-11-10T08:35:28;11.20;99.90
64685;DHT22;51109;47.414;18.954;2022-11-10T08:37:54;11.10;99.90
64685;DHT22;51109;47.414;18.954;2022-11-10T08:40:21;11.20;99.90
64685;DHT22;51109;47.414;18.954;2022-11-10T08:42:57;11.10;99.90
64685;DHT22;51109;47.414;18.954;2022-11-10T08:45:23;11.10;99.90
64685;DHT22;51109;47.414;18.954;2022-11-10T08:47:56;11.20;99.90
64685;DHT22;51109;47.414;18.954;2022-11-10T08:50:22;11.20;99.90
64685;DHT22;51109;47.414;18.954;2022-11-10T08:52:48;11.20;99.90
64685;DHT22;51109;47.414;18.954;2022-11-10T08:55:14;11.30;99.90
64685;DHT22;51109;47.414;18.954;2022-11-10T08:57:40;11.20;99.90
64685;DHT22;51109;47.414;18.954;2022-11-10T09:00:06;11.30;99.90
64685;DHT22;51109;47.414;18.954;2022-11-10T09:02:32;11.30;99.90
64685;DHT22;51109;47.414;18.954;2022-11-10T09:04:58;11.30;99.90
64685;DHT22;51109;47.414;18.954;2022-11-10T09:07:24;11.40;99.90
64685;DHT22;51109;47.414;18.954;2022-11-10T09:09:53;11.40;99.90
64685;DHT22;51109;47.414;18.954;2022-11-10T09:12:18;11.40;99.90
64685;DHT22;51109;47.414;18.954;2022-11-10T09:14:44;11.50;99.90
64685;DHT22;51109;47.414;18.954;2022-11-10T09:17:10;11.60;99.90
64685;DHT22;51109;47.414;18.954;2022-11-10T09:19:36;11.60;99.90
64685;DHT22;51109;47.414;18.954;2022-11-10T09:22:02;11.60;99.90
64685;DHT22;51109;47.414;18.954;2022-11-10T09:24:28;11.70;99.90
64685;DHT22;51109;47.414;18.954;2022-11-10T09:26:54;11.70;99.90
64685;DHT22;51109;47.414;18.954;2022-11-10T09:29:20;11.70;99.90
64685;DHT22;51109;47.414;18.954;2022-11-10T09:31:46;11.80;99.90
64685;DHT22;51109;47.414;18.954;2022-11-10T09:34:12;11.80;99.90
64685;DHT22;51109;47.414;18.954;2022-11-10T09:36:38;11.80;99.90
64685;DHT22;51109;47.414;18.954;2022-11-10T09:39:06;11.80;99.90
64685;DHT22;51109;47.414;18.954;2022-11-10T09:41:32;11.80;99.90
64685;DHT22;51109;47.414;18.954;2022-11-10T09:44:20;11.80;99.90
64685;DHT22;51109;47.414;18.954;2022-11-10T09:47:07;11.70;99.90
64685;DHT22;51109;47.414;18.954;2022-11-10T09:52:33;11.60;99.90
64685;DHT22;51109;47.414;18.954;2022-11-10T09:55:32;11.60;99.90
64685;DHT22;51109;47.414;18.954;2022-11-10T09:57:59;11.70;99.90
64685;DHT22;51109;47.414;18.954;2022-11-10T10:00:27;11.70;99.90
64685;DHT22;51109;47.414;18.954;2022-11-10T10:03:01;11.70;99.90
64685;DHT22;51109;47.414;18.954;2022-11-10T10:11:25;11.90;99.90
64685;DHT22;51109;47.414;18.954;2022-11-10T10:14:13;12.00;99.90
64685;DHT22;51109;47.414;18.954;2022-11-10T10:19:26;12.20;99.90
64685;DHT22;51109;47.414;18.954;2022-11-10T10:24:48;12.20;99.90
64685;DHT22;51109;47.414;18.954;2022-11-10T10:27:24;12.20;99.90
64685;DHT22;51109;47.414;18.954;2022-11-10T10:29:51;12.10;99.90
64685;DHT22;51109;47.414;18.954;2022-11-10T10:32:18;12.20;99.90
64685;DHT22;51109;47.414;18.954;2022-11-10T10:34:45;12.10;99.90
64685;DHT22;51109;47.414;18.954;2022-11-10T10:39:54;12.20;99.90
64685;DHT22;51109;47.414;18.954;2022-11-10T10:42:30;12.10;99.90
64685;DHT22;51109;47.414;18.954;2022-11-10T10:45:31;12.20;99.90
64685;DHT22;51109;47.414;18.954;2022-11-10T10:47:57;12.20;99.90
64685;DHT22;51109;47.414;18.954;2022-11-10T10:55:35;12.30;99.90
64685;DHT22;51109;47.414;18.954;2022-11-10T10:58:08;12.30;99.90
64685;DHT22;51109;47.414;18.954;2022-11-10T11:00:48;12.40;99.90
64685;DHT22;51109;47.414;18.954;2022-11-10T11:03:25;12.50;99.90
64685;DHT22;51109;47.414;18.954;2022-11-10T11:08:33;12.80;99.90
64685;DHT22;51109;47.414;18.954;2022-11-10T11:11:09;12.80;99.90
64685;DHT22;51109;47.414;18.954;2022-11-10T11:13:36;12.80;99.90
64685;DHT22;51109;47.414;18.954;2022-11-10T11:16:07;12.90;99.90
64685;DHT22;51109;47.414;18.954;2022-11-10T11:18:37;13.00;99.90
64685;DHT22;51109;47.414;18.954;2022-11-10T11:26:43;13.10;99.90
64685;DHT22;51109;47.414;18.954;2022-11-10T11:29:22;13.00;99.90
64685;DHT22;51109;47.414;18.954;2022-11-10T11:35:32;12.90;99.90
64685;DHT22;51109;47.414;18.954;2022-11-10T11:43:37;12.80;99.90
64685;DHT22;51109;47.414;18.954;2022-11-10T11:56:40;12.60;99.90
64685;DHT22;51109;47.414;18.954;2022-11-10T12:04:44;12.40;99.90
64685;DHT22;51109;47.414;18.954;2022-11-10T12:07:34;12.30;99.90
64685;DHT22;51109;47.414;18.954;2022-11-10T12:16:21;12.30;99.90
64685;DHT22;51109;47.414;18.954;2022-11-10T12:27:10;12.10;99.90
64685;DHT22;51109;47.414;18.954;2022-11-10T12:29:51;12.10;99.90
64685;DHT22;51109;47.414;18.954;2022-11-10T12:32:32;12.00;99.90
64685;DHT22;51109;47.414;18.954;2022-11-10T12:35:30;12.00;99.90
64685;DHT22;51109;47.414;18.954;2022-11-10T12:38:13;12.00;99.90
64685;DHT22;51109;47.414;18.954;2022-11-10T12:40:56;12.00;99.90
64685;DHT22;51109;47.414;18.954;2022-11-10T12:46:11;12.00;99.90
64685;DHT22;51109;47.414;18.954;2022-11-10T12:49:07;12.00;99.90
64685;DHT22;51109;47.414;18.954;2022-11-10T12:54:27;11.90;99.90
64685;DHT22;51109;47.414;18.954;2022-11-10T12:56:56;11.80;99.90
64685;DHT22;51109;47.414;18.954;2022-11-10T13:00:21;11.80;99.90
64685;DHT22;51109;47.414;18.954;2022-11-10T13:04:41;11.70;99.90
64685;DHT22;51109;47.414;18.954;2022-11-10T13:07:08;11.70;99.90
64685;DHT22;51109;47.414;18.954;2022-11-10T13:09:37;11.60;99.90
64685;DHT22;51109;47.414;18.954;2022-11-10T13:12:22;11.60;99.90
64685;DHT22;51109;47.414;18.954;2022-11-10T13:14:49;11.60;99.90
64685;DHT22;51109;47.414;18.954;2022-11-10T13:20:01;11.60;99.90
64685;DHT22;51109;47.414;18.954;2022-11-10T13:22:35;11.50;99.90
64685;DHT22;51109;47.414;18.954;2022-11-10T13:28:03;11.50;99.90
64685;DHT22;51109;47.414;18.954;2022-11-10T13:30:44;11.50;99.90
64685;DHT22;51109;47.414;18.954;2022-11-10T13:33:32;11.50;99.90
64685;DHT22;51109;47.414;18.954;2022-11-10T13:35:59;11.50;99.90
64685;DHT22;51109;47.414;18.954;2022-11-10T13:43:50;11.60;99.90
64685;DHT22;51109;47.414;18.954;2022-11-10T13:46:17;11.60;99.90
64685;DHT22;51109;47.414;18.954;2022-11-10T13:51:35;11.60;99.90
64685;DHT22;51109;47.414;18.954;2022-11-10T13:57:35;11.60;99.90
64685;DHT22;51109;47.414;18.954;2022-11-10T14:08:22;11.60;99.90
64685;DHT22;51109;47.414;18.954;2022-11-10T14:11:02;11.60;99.90
64685;DHT22;51109;47.414;18.954;2022-11-10T14:13:40;11.60;99.90
64685;DHT22;51109;47.414;18.954;2022-11-10T14:16:29;11.60;99.90
64685;DHT22;51109;47.414;18.954;2022-11-10T14:19:18;11.50;99.90
64685;DHT22;51109;47.414;18.954;2022-11-10T14:21:57;11.50;99.90
64685;DHT22;51109;47.414;18.954;2022-11-10T14:24:34;11.60;99.90
64685;DHT22;51109;47.414;18.954;2022-11-10T14:27:19;11.50;99.90
64685;DHT22;51109;47.414;18.954;2022-11-10T14:29:46;11.50;99.90
64685;DHT22;51109;47.414;18.954;2022-11-10T14:32:15;11.60;99.90
64685;DHT22;51109;47.414;18.954;2022-11-10T14:34:47;11.50;99.90
64685;DHT22;51109;47.414;18.954;2022-11-10T14:37:21;11.60;99.90
64685;DHT22;51109;47.414;18.954;2022-11-10T14:39:59;11.60;99.90
64685;DHT22;51109;47.414;18.954;2022-11-10T14:42:28;11.50;99.90
64685;DHT22;51109;47.414;18.954;2022-11-10T14:47:39;11.50;99.90
64685;DHT22;51109;47.414;18.954;2022-11-10T14:50:06;11.50;99.90
64685;DHT22;51109;47.414;18.954;2022-11-10T14:52:37;11.50;99.90
64685;DHT22;51109;47.414;18.954;2022-11-10T14:55:25;11.50;99.90
64685;DHT22;51109;47.414;18.954;2022-11-10T14:58:01;11.50;99.90
64685;DHT22;51109;47.414;18.954;2022-11-10T15:00:27;11.50;99.90
64685;DHT22;51109;47.414;18.954;2022-11-10T15:02:58;11.50;99.90
64685;DHT22;51109;47.414;18.954;2022-11-10T15:05:24;11.50;99.90
64685;DHT22;51109;47.414;18.954;2022-11-10T15:07:54;11.50;99.90
64685;DHT22;51109;47.414;18.954;2022-11-10T15:10:27;11.50;99.90
64685;DHT22;51109;47.414;18.954;2022-11-10T15:13:18;11.50;99.90
64685;DHT22;51109;47.414;18.954;2022-11-10T15:15:46;11.50;99.90
64685;DHT22;51109;47.414;18.954;2022-11-10T15:18:26;11.50;99.90
64685;DHT22;51109;47.414;18.954;2022-11-10T15:20:59;11.50;99.90
64685;DHT22;51109;47.414;18.954;2022-11-10T15:23:37;11.50;99.90
64685;DHT22;51109;47.414;18.954;2022-11-10T15:26:05;11.40;99.90
64685;DHT22;51109;47.414;18.954;2022-11-10T15:28:41;11.40;99.90
64685;DHT22;51109;47.414;18.954;2022-11-10T15:31:10;11.40;99.90
64685;DHT22;51109;47.414;18.954;2022-11-10T15:33:38;11.40;99.90
64685;DHT22;51109;47.414;18.954;2022-11-10T15:36:26;11.40;99.90
64685;DHT22;51109;47.414;18.954;2022-11-10T15:39:02;11.40;99.90
64685;DHT22;51109;47.414;18.954;2022-11-10T15:41:32;11.40;99.90
64685;DHT22;51109;47.414;18.954;2022-11-10T15:44:21;11.40;99.90
64685;DHT22;51109;47.414;18.954;2022-11-10T15:46:50;11.30;99.90
64685;DHT22;51109;47.414;18.954;2022-11-10T15:49:33;11.30;99.90
64685;DHT22;51109;47.414;18.954;2022-11-10T15:52:03;11.30;99.90
64685;DHT22;51109;47.414;18.954;2022-11-10T15:54:32;11.30;99.90
64685;DHT22;51109;47.414;18.954;2022-11-10T15:56:59;11.30;99.90
64685;DHT22;51109;47.414;18.954;2022-11-10T15:59:25;11.30;99.90
64685;DHT22;51109;47.414;18.954;2022-11-10T16:01:51;11.30;99.90
64685;DHT22;51109;47.414;18.954;2022-11-10T16:04:17;11.30;99.90
64685;DHT22;51109;47.414;18.954;2022-11-10T16:06:44;11.30;99.90
64685;DHT22;51109;47.414;18.954;2022-11-10T16:09:11;11.30;99.90
64685;DHT22;51109;47.414;18.954;2022-11-10T16:11:39;11.30;99.90
64685;DHT22;51109;47.414;18.954;2022-11-10T16:14:12;11.30;99.90
64685;DHT22;51109;47.414;18.954;2022-11-10T16:16:40;11.20;99.90
64685;DHT22;51109;47.414;18.954;2022-11-10T16:19:09;11.20;99.90
64685;DHT22;51109;47.414;18.954;2022-11-10T16:21:35;11.20;99.90
64685;DHT22;51109;47.414;18.954;2022-11-10T16:24:01;11.20;99.90
64685;DHT22;51109;47.414;18.954;2022-11-10T16:26:28;11.30;99.90
64685;DHT22;51109;47.414;18.954;2022-11-10T16:28:54;11.20;99.90
64685;DHT22;51109;47.414;18.954;2022-11-10T16:31:21;11.20;99.90
64685;DHT22;51109;47.414;18.954;2022-11-10T16:33:48;11.30;99.90
64685;DHT22;51109;47.414;18.954;2022-11-10T16:36:24;11.30;99.90
64685;DHT22;51109;47.414;18.954;2022-11-10T16:38:51;11.20;99.90
64685;DHT22;51109;47.414;18.954;2022-11-10T16:41:17;11.30;99.90
64685;DHT22;51109;47.414;18.954;2022-11-10T16:43:43;11.30;99.90
64685;DHT22;51109;47.414;18.954;2022-11-10T16:48:43;11.20;99.90
64685;DHT22;51109;47.414;18.954;2022-11-10T16:51:09;11.20;99.90
64685;DHT22;51109;47.414;18.954;2022-11-10T16:53:37;11.20;99.90
64685;DHT22;51109;47.414;18.954;2022-11-10T16:56:03;11.20;99.90
64685;DHT22;51109;47.414;18.954;2022-11-10T16:58:29;11.20;99.90
64685;DHT22;51109;47.414;18.954;2022-11-10T17:00:58;11.20;99.90
64685;DHT22;51109;47.414;18.954;2022-11-10T17:03:42;11.20;99.90
64685;DHT22;51109;47.414;18.954;2022-11-10T17:06:10;11.20;99.90
64685;DHT22;51109;47.414;18.954;2022-11-10T17:08:40;11.20;99.90
64685;DHT22;51109;47.414;18.954;2022-11-10T17:11:06;11.20;99.90
64685;DHT22;51109;47.414;18.954;2022-11-10T17:13:32;11.20;99.90
64685;DHT22;51109;47.414;18.954;2022-11-10T17:16:29;11.10;99.90
64685;DHT22;51109;47.414;18.954;2022-11-10T17:18:59;11.10;99.90
64685;DHT22;51109;47.414;18.954;2022-11-10T17:21:26;11.10;99.90